createdAt,value
2016-12-12T00:00:11.220Z,0
2016-12-12T00:01:21.070Z,0
2016-12-12T00:02:30.865Z,0
2016-12-12T00:03:40.647Z,0
2016-12-12T00:04:50.480Z,0
2016-12-12T00:05:59.938Z,0
2016-12-12T00:07:09.164Z,0
2016-12-12T00:08:18.942Z,0
2016-12-12T00:09:28.758Z,0
2016-12-12T00:10:38.537Z,0
2016-12-12T00:11:48.316Z,0
2016-12-12T00:12:58.092Z,0
2016-12-12T00:14:07.561Z,0
2016-12-12T00:15:17.129Z,0
2016-12-12T00:16:26.297Z,0
2016-12-12T00:17:35.457Z,0
2016-12-12T00:18:44.640Z,0
2016-12-12T00:19:54.244Z,0
2016-12-12T00:21:03.748Z,0
2016-12-12T00:22:12.959Z,0
2016-12-12T00:23:22.728Z,0
2016-12-12T00:24:32.206Z,0
2016-12-12T00:25:42.084Z,0
2016-12-12T00:26:51.617Z,0
2016-12-12T00:28:00.768Z,0
2016-12-12T00:29:10.576Z,0
2016-12-12T00:30:20.047Z,0
2016-12-12T00:31:29.827Z,0
2016-12-12T00:32:39.615Z,0
2016-12-12T00:33:49.072Z,0
2016-12-12T00:34:58.530Z,0
2016-12-12T00:36:08.016Z,0
2016-12-12T00:37:17.521Z,0
2016-12-12T00:38:26.739Z,0
2016-12-12T00:39:36.333Z,0
2016-12-12T00:40:46.119Z,0
2016-12-12T00:41:55.328Z,0
2016-12-12T00:43:04.812Z,0
2016-12-12T00:44:14.850Z,0
2016-12-12T00:45:24.023Z,0
2016-12-12T00:46:33.522Z,0
2016-12-12T00:47:43.060Z,0
2016-12-12T00:48:52.258Z,0
2016-12-12T00:50:01.736Z,0
2016-12-12T00:51:11.550Z,0
2016-12-12T00:52:21.336Z,0
2016-12-12T00:53:30.800Z,0
2016-12-12T00:54:40.277Z,0
2016-12-12T00:55:50.099Z,0
2016-12-12T00:56:59.895Z,0
2016-12-12T00:58:09.687Z,0
2016-12-12T00:59:18.839Z,0
2016-12-12T01:00:28.644Z,0
2016-12-12T01:01:38.443Z,0
2016-12-12T01:02:47.904Z,0
2016-12-12T01:03:57.676Z,0
2016-12-12T01:05:07.175Z,0
2016-12-12T01:06:17.043Z,0
2016-12-12T01:07:26.217Z,0
2016-12-12T01:08:35.438Z,0
2016-12-12T01:09:45.210Z,0
2016-12-12T01:10:54.987Z,0
2016-12-12T01:12:04.779Z,0
2016-12-12T01:13:14.616Z,0
2016-12-12T01:14:24.159Z,0
2016-12-12T01:15:33.998Z,0
2016-12-12T01:16:43.766Z,0
2016-12-12T01:17:53.060Z,0
2016-12-12T01:19:02.852Z,0
2016-12-12T01:20:12.340Z,0
2016-12-12T01:21:21.828Z,0
2016-12-12T01:22:31.310Z,0
2016-12-12T01:23:41.168Z,0
2016-12-12T01:24:50.633Z,0
2016-12-12T01:26:00.157Z,0
2016-12-12T01:27:09.645Z,0
2016-12-12T01:28:19.504Z,0
2016-12-12T01:29:29.317Z,0
2016-12-12T01:30:39.118Z,0
2016-12-12T01:31:48.584Z,0
2016-12-12T01:32:58.051Z,0
2016-12-12T01:34:07.592Z,0
2016-12-12T01:35:17.375Z,0
2016-12-12T01:36:27.142Z,0
2016-12-12T01:37:36.931Z,0
2016-12-12T01:38:46.713Z,0
2016-12-12T01:39:56.497Z,0
2016-12-12T01:41:06.284Z,0
2016-12-12T01:42:15.788Z,0
2016-12-12T01:43:24.935Z,0
2016-12-12T01:44:34.709Z,0
2016-12-12T01:45:44.485Z,0
2016-12-12T01:46:53.967Z,0
2016-12-12T01:48:03.778Z,0
2016-12-12T01:49:13.579Z,0
2016-12-12T01:50:23.045Z,0
2016-12-12T01:51:32.541Z,0
2016-12-12T01:52:42.402Z,0
2016-12-12T01:53:52.242Z,0
2016-12-12T01:55:02.064Z,0
2016-12-12T01:56:11.839Z,0
2016-12-12T01:57:21.330Z,0
2016-12-12T01:58:30.841Z,0
2016-12-12T01:59:40.755Z,0
2016-12-12T02:00:50.221Z,0
2016-12-12T02:01:59.987Z,0
2016-12-12T02:03:09.782Z,0
2016-12-12T02:04:19.620Z,0
2016-12-12T02:05:29.432Z,0
2016-12-12T02:06:39.348Z,0
2016-12-12T02:07:48.855Z,0
2016-12-12T02:08:58.017Z,0
2016-12-12T02:10:07.568Z,0
2016-12-12T02:11:17.489Z,0
2016-12-12T02:12:26.646Z,0
2016-12-12T02:13:36.129Z,0
2016-12-12T02:14:45.682Z,0
2016-12-12T02:15:55.175Z,0
2016-12-12T02:17:04.964Z,0
2016-12-12T02:18:14.734Z,0
2016-12-12T02:19:24.513Z,0
2016-12-12T02:20:34.284Z,0
2016-12-12T02:21:43.769Z,0
2016-12-12T02:22:53.633Z,0
2016-12-12T02:24:03.126Z,0
2016-12-12T02:25:12.306Z,0
2016-12-12T02:26:22.136Z,0
2016-12-12T02:27:31.915Z,0
2016-12-12T02:28:41.821Z,0
2016-12-12T02:29:51.623Z,0
2016-12-12T02:31:01.392Z,0
2016-12-12T02:32:11.226Z,0
2016-12-12T02:33:20.994Z,0
2016-12-12T02:34:30.575Z,0
2016-12-12T02:35:40.064Z,0
2016-12-12T02:36:49.576Z,0
2016-12-12T02:37:59.197Z,0
2016-12-12T02:39:09.012Z,0
2016-12-12T02:40:18.492Z,0
2016-12-12T02:41:28.267Z,0
2016-12-12T02:42:37.210Z,0
2016-12-12T02:43:46.677Z,0
2016-12-12T02:44:56.169Z,0
2016-12-12T02:46:05.943Z,0
2016-12-12T02:47:15.740Z,0
2016-12-12T02:48:25.204Z,0
2016-12-12T02:49:34.701Z,0
2016-12-12T02:50:44.625Z,0
2016-12-12T02:51:54.106Z,0
2016-12-12T02:53:03.897Z,0
2016-12-12T02:54:13.367Z,0
2016-12-12T02:55:22.887Z,0
2016-12-12T02:56:32.665Z,0
2016-12-12T02:57:42.271Z,0
2016-12-12T02:58:51.466Z,0
2016-12-12T03:00:01.268Z,0
2016-12-12T03:01:10.753Z,0
2016-12-12T03:02:20.216Z,0
2016-12-12T03:03:30.049Z,0
2016-12-12T03:04:39.547Z,0
2016-12-12T03:05:49.332Z,0
2016-12-12T03:06:58.202Z,0
2016-12-12T03:08:07.662Z,0
2016-12-12T03:09:17.133Z,0
2016-12-12T03:10:26.305Z,0
2016-12-12T03:11:35.767Z,0
2016-12-12T03:12:45.421Z,0
2016-12-12T03:13:54.606Z,0
2016-12-12T03:15:04.086Z,0
2016-12-12T03:16:13.818Z,0
2016-12-12T03:17:23.294Z,0
2016-12-12T03:18:32.491Z,0
2016-12-12T03:19:42.326Z,0
2016-12-12T03:20:52.159Z,0
2016-12-12T03:22:02.028Z,0
2016-12-12T03:23:11.849Z,0
2016-12-12T03:24:21.666Z,0
2016-12-12T03:25:31.537Z,0
2016-12-12T03:26:41.037Z,0
2016-12-12T03:27:50.642Z,0
2016-12-12T03:29:00.443Z,0
2016-12-12T03:30:09.927Z,0
2016-12-12T03:31:19.406Z,0
2016-12-12T03:32:29.246Z,0
2016-12-12T03:33:39.040Z,0
2016-12-12T03:34:48.568Z,0
2016-12-12T03:35:58.334Z,0
2016-12-12T03:37:07.951Z,0
2016-12-12T03:38:17.433Z,0
2016-12-12T03:39:27.224Z,0
2016-12-12T03:40:36.995Z,0
2016-12-12T03:41:46.770Z,0
2016-12-12T03:42:56.242Z,0
2016-12-12T03:44:05.789Z,0
2016-12-12T03:45:15.247Z,0
2016-12-12T03:46:24.860Z,0
2016-12-12T03:47:34.317Z,0
2016-12-12T03:48:43.787Z,0
2016-12-12T03:49:53.274Z,0
2016-12-12T03:51:03.069Z,0
2016-12-12T03:52:12.224Z,0
2016-12-12T03:53:22.030Z,0
2016-12-12T03:54:31.681Z,0
2016-12-12T03:55:41.519Z,0
2016-12-12T03:56:51.292Z,0
2016-12-12T03:58:01.090Z,0
2016-12-12T03:59:10.566Z,0
2016-12-12T04:00:20.085Z,0
2016-12-12T04:01:29.281Z,0
2016-12-12T04:02:39.085Z,0
2016-12-12T04:03:48.868Z,0
2016-12-12T04:04:58.436Z,0
2016-12-12T04:06:07.955Z,0
2016-12-12T04:07:17.745Z,0
2016-12-12T04:08:27.569Z,0
2016-12-12T04:09:37.077Z,0
2016-12-12T04:10:46.592Z,0
2016-12-12T04:11:55.900Z,0
2016-12-12T04:13:05.368Z,0
2016-12-12T04:14:15.143Z,0
2016-12-12T04:15:24.911Z,0
2016-12-12T04:16:34.122Z,0
2016-12-12T04:17:43.901Z,0
2016-12-12T04:18:53.670Z,0
2016-12-12T04:20:03.155Z,0
2016-12-12T04:21:12.309Z,0
2016-12-12T04:22:21.777Z,0
2016-12-12T04:23:31.569Z,0
2016-12-12T04:24:41.039Z,0
2016-12-12T04:25:50.829Z,0
2016-12-12T04:27:00.655Z,0
2016-12-12T04:28:10.335Z,0
2016-12-12T04:29:20.111Z,0
2016-12-12T04:30:29.901Z,0
2016-12-12T04:31:39.672Z,0
2016-12-12T04:32:49.155Z,0
2016-12-12T04:33:58.316Z,0
2016-12-12T04:35:08.103Z,0
2016-12-12T04:36:17.392Z,0
2016-12-12T04:37:27.244Z,0
2016-12-12T04:38:36.710Z,0
2016-12-12T04:39:46.178Z,0
2016-12-12T04:40:55.999Z,0
2016-12-12T04:42:05.498Z,0
2016-12-12T04:43:15.012Z,0
2016-12-12T04:44:24.800Z,0
2016-12-12T04:45:34.621Z,0
2016-12-12T04:46:44.104Z,0
2016-12-12T04:47:53.875Z,0
2016-12-12T04:49:03.668Z,0
2016-12-12T04:50:13.486Z,0
2016-12-12T04:51:22.969Z,0
2016-12-12T04:52:32.439Z,0
2016-12-12T04:53:42.017Z,0
2016-12-12T04:54:51.844Z,0
2016-12-12T04:56:01.634Z,0
2016-12-12T04:57:11.094Z,0
2016-12-12T04:58:20.584Z,0
2016-12-12T04:59:30.423Z,0
2016-12-12T05:00:39.987Z,0
2016-12-12T05:01:49.517Z,0
2016-12-12T05:02:59.309Z,0
2016-12-12T05:04:08.767Z,0
2016-12-12T05:05:18.542Z,0
2016-12-12T05:06:28.122Z,0
2016-12-12T05:07:37.628Z,0
2016-12-12T05:08:47.111Z,0
2016-12-12T05:09:56.589Z,0
2016-12-12T05:11:06.420Z,0
2016-12-12T05:12:15.959Z,0
2016-12-12T05:13:24.818Z,0
2016-12-12T05:14:34.333Z,0
2016-12-12T05:15:44.102Z,0
2016-12-12T05:16:53.887Z,0
2016-12-12T05:18:03.438Z,0
2016-12-12T05:19:13.198Z,0
2016-12-12T05:20:23.009Z,0
2016-12-12T05:21:32.777Z,0
2016-12-12T05:22:42.567Z,0
2016-12-12T05:23:52.447Z,0
2016-12-12T05:25:01.915Z,0
2016-12-12T05:26:11.692Z,0
2016-12-12T05:27:21.176Z,0
2016-12-12T05:28:30.683Z,0
2016-12-12T05:29:40.450Z,0
2016-12-12T05:30:50.245Z,0
2016-12-12T05:32:00.053Z,0
2016-12-12T05:33:09.528Z,0
2016-12-12T05:34:19.024Z,0
2016-12-12T05:35:28.493Z,0
2016-12-12T05:36:38.333Z,0
2016-12-12T05:37:48.124Z,0
2016-12-12T05:38:57.965Z,0
2016-12-12T05:40:06.719Z,0
2016-12-12T05:41:16.317Z,0
2016-12-12T05:42:25.811Z,0
2016-12-12T05:43:35.706Z,0
2016-12-12T05:44:45.214Z,0
2016-12-12T05:45:54.751Z,0
2016-12-12T05:47:04.631Z,0
2016-12-12T05:48:14.492Z,0
2016-12-12T05:49:24.279Z,0
2016-12-12T05:50:34.063Z,0
2016-12-12T05:51:43.681Z,0
2016-12-12T05:52:53.449Z,0
2016-12-12T05:54:03.245Z,0
2016-12-12T05:55:13.065Z,0
2016-12-12T05:56:22.538Z,0
2016-12-12T05:57:32.016Z,0
2016-12-12T05:58:44.433Z,0
2016-12-12T05:59:53.593Z,0
2016-12-12T06:01:02.828Z,0
2016-12-12T06:02:12.331Z,0
2016-12-12T06:03:21.974Z,0
2016-12-12T06:04:31.796Z,0
2016-12-12T06:05:41.006Z,0
2016-12-12T06:06:50.481Z,0
2016-12-12T06:07:59.955Z,0
2016-12-12T06:09:09.792Z,0
2016-12-12T06:10:19.611Z,0
2016-12-12T06:11:29.424Z,0
2016-12-12T06:12:39.234Z,0
2016-12-12T06:13:49.043Z,0
2016-12-12T06:14:58.517Z,0
2016-12-12T06:16:08.313Z,0
2016-12-12T06:17:18.078Z,0
2016-12-12T06:18:27.341Z,0
2016-12-12T06:19:36.821Z,0
2016-12-12T06:20:46.698Z,0
2016-12-12T06:21:56.181Z,0
2016-12-12T06:23:05.953Z,0
2016-12-12T06:24:15.771Z,0
2016-12-12T06:25:25.540Z,0
2016-12-12T06:26:35.011Z,0
2016-12-12T06:27:44.519Z,0
2016-12-12T06:28:54.369Z,0
2016-12-12T06:30:04.168Z,0
2016-12-12T06:31:13.676Z,0
2016-12-12T06:32:22.839Z,0
2016-12-12T06:33:32.628Z,0
2016-12-12T06:34:42.403Z,0
2016-12-12T06:35:51.317Z,0
2016-12-12T06:37:01.172Z,0
2016-12-12T06:38:10.704Z,0
2016-12-12T06:39:20.172Z,0
2016-12-12T06:40:29.968Z,0
2016-12-12T06:41:39.753Z,0
2016-12-12T06:42:49.241Z,0
2016-12-12T06:43:58.544Z,0
2016-12-12T06:45:08.044Z,0
2016-12-12T06:46:17.832Z,0
2016-12-12T06:47:26.993Z,0
2016-12-12T06:48:36.762Z,0
2016-12-12T06:49:46.238Z,0
2016-12-12T06:50:56.196Z,0
2016-12-12T06:52:05.986Z,0
2016-12-12T06:53:15.467Z,0
2016-12-12T06:54:25.286Z,0
2016-12-12T06:55:34.898Z,0
2016-12-12T06:56:44.066Z,0
2016-12-12T06:57:53.544Z,0
2016-12-12T06:59:03.319Z,0
2016-12-12T07:00:12.793Z,0
2016-12-12T07:01:22.279Z,5
2016-12-12T07:02:31.755Z,5
2016-12-12T07:03:41.528Z,5
2016-12-12T07:04:51.302Z,5
2016-12-12T07:06:00.763Z,10
2016-12-12T07:07:10.566Z,10
2016-12-12T07:08:20.383Z,10
2016-12-12T07:09:30.221Z,10
2016-12-12T07:10:39.387Z,10
2016-12-12T07:11:49.299Z,15
2016-12-12T07:12:59.087Z,15
2016-12-12T07:14:08.550Z,15
2016-12-12T07:15:18.018Z,15
2016-12-12T07:16:27.844Z,15
2016-12-12T07:17:37.626Z,15
2016-12-12T07:18:47.082Z,15
2016-12-12T07:19:56.855Z,15
2016-12-12T07:21:06.331Z,20
2016-12-12T07:22:16.183Z,20
2016-12-12T07:23:25.991Z,20
2016-12-12T07:24:35.480Z,20
2016-12-12T07:25:44.635Z,25
2016-12-12T07:26:54.157Z,20
2016-12-12T07:28:03.666Z,15
2016-12-12T07:29:13.575Z,25
2016-12-12T07:30:23.364Z,25
2016-12-12T07:31:33.159Z,30
2016-12-12T07:32:42.941Z,35
2016-12-12T07:33:52.736Z,40
2016-12-12T07:35:02.508Z,40
2016-12-12T07:36:11.716Z,35
2016-12-12T07:37:21.523Z,35
2016-12-12T07:38:31.022Z,35
2016-12-12T07:39:40.211Z,35
2016-12-12T07:40:49.982Z,35
2016-12-12T07:41:59.584Z,40
2016-12-12T07:43:09.107Z,40
2016-12-12T07:44:18.918Z,40
2016-12-12T07:45:28.077Z,40
2016-12-12T07:46:37.932Z,35
2016-12-12T07:47:47.392Z,40
2016-12-12T07:48:56.557Z,45
2016-12-12T07:50:06.340Z,35
2016-12-12T07:51:15.794Z,35
2016-12-12T07:52:25.301Z,35
2016-12-12T07:53:34.795Z,30
2016-12-12T07:54:44.421Z,15
2016-12-12T07:55:53.904Z,20
2016-12-12T07:57:03.389Z,25
2016-12-12T07:58:12.863Z,15
2016-12-12T07:59:22.632Z,20
2016-12-12T08:00:32.433Z,35
2016-12-12T08:01:42.280Z,25
2016-12-12T08:02:51.776Z,25
2016-12-12T08:04:00.936Z,30
2016-12-12T08:05:10.124Z,40
2016-12-12T08:06:19.637Z,45
2016-12-12T08:07:29.107Z,35
2016-12-12T08:08:38.297Z,35
2016-12-12T08:09:47.796Z,35
2016-12-12T08:10:57.266Z,30
2016-12-12T08:12:07.044Z,40
2016-12-12T08:13:16.828Z,45
2016-12-12T08:14:25.999Z,50
2016-12-12T08:15:35.617Z,60
2016-12-12T08:16:45.408Z,60
2016-12-12T08:17:55.182Z,55
2016-12-12T08:19:04.701Z,45
2016-12-12T08:20:14.162Z,50
2016-12-12T08:21:23.945Z,55
2016-12-12T08:22:33.715Z,55
2016-12-12T08:23:43.484Z,55
2016-12-12T08:24:53.009Z,60
2016-12-12T08:26:02.481Z,65
2016-12-12T08:27:12.303Z,70
2016-12-12T08:28:21.823Z,60
2016-12-12T08:29:31.734Z,55
2016-12-12T08:30:41.508Z,60
2016-12-12T08:31:50.697Z,60
2016-12-12T08:33:00.182Z,60
2016-12-12T08:34:09.657Z,55
2016-12-12T08:35:19.424Z,65
2016-12-12T08:36:29.212Z,70
2016-12-12T08:37:38.980Z,70
2016-12-12T08:38:48.165Z,75
2016-12-12T08:39:57.666Z,80
2016-12-12T08:41:07.472Z,80
2016-12-12T08:42:16.947Z,75
2016-12-12T08:43:26.446Z,70
2016-12-12T08:44:36.239Z,70
2016-12-12T08:45:46.046Z,85
2016-12-12T08:46:55.530Z,95
2016-12-12T08:48:05.073Z,105
2016-12-12T08:49:14.906Z,95
2016-12-12T08:50:24.388Z,100
2016-12-12T08:51:34.208Z,110
2016-12-12T08:52:43.377Z,105
2016-12-12T08:53:52.862Z,100
2016-12-12T08:55:02.680Z,95
2016-12-12T08:56:12.141Z,95
2016-12-12T08:57:21.972Z,85
2016-12-12T08:58:31.774Z,85
2016-12-12T08:59:41.577Z,100
2016-12-12T09:00:51.474Z,105
2016-12-12T09:02:01.274Z,95
2016-12-12T09:03:10.782Z,105
2016-12-12T09:04:52.465Z,85
2016-12-12T09:06:02.287Z,85
2016-12-12T09:07:11.761Z,90
2016-12-12T09:08:21.242Z,90
2016-12-12T09:09:30.729Z,90
2016-12-12T09:10:40.526Z,100
2016-12-12T09:11:50.322Z,100
2016-12-12T09:13:00.141Z,100
2016-12-12T09:14:09.960Z,110
2016-12-12T09:15:19.500Z,115
2016-12-12T09:16:29.304Z,115
2016-12-12T09:17:38.783Z,130
2016-12-12T09:18:48.303Z,110
2016-12-12T09:19:57.773Z,100
2016-12-12T09:21:07.297Z,110
2016-12-12T09:22:17.217Z,100
2016-12-12T09:23:26.992Z,100
2016-12-12T09:24:36.771Z,105
2016-12-12T09:25:46.279Z,100
2016-12-12T09:26:56.054Z,90
2016-12-12T09:28:05.523Z,100
2016-12-12T09:29:15.447Z,85
2016-12-12T09:30:25.255Z,80
2016-12-12T09:31:34.771Z,90
2016-12-12T09:32:44.323Z,120
2016-12-12T09:33:54.129Z,105
2016-12-12T09:35:03.280Z,115
2016-12-12T09:36:12.769Z,105
2016-12-12T09:37:22.618Z,100
2016-12-12T09:38:32.502Z,135
2016-12-12T09:39:42.297Z,105
2016-12-12T09:40:52.096Z,115
2016-12-12T09:42:01.880Z,160
2016-12-12T09:43:11.669Z,135
2016-12-12T09:44:20.824Z,150
2016-12-12T09:45:30.617Z,205
2016-12-12T09:46:40.416Z,200
2016-12-12T09:47:49.914Z,200
2016-12-12T09:48:59.578Z,210
2016-12-12T09:50:09.386Z,210
2016-12-12T09:51:19.189Z,240
2016-12-12T09:52:28.968Z,215
2016-12-12T09:53:38.477Z,195
2016-12-12T09:54:48.467Z,270
2016-12-12T09:55:58.293Z,290
2016-12-12T09:57:07.791Z,305
2016-12-12T09:58:17.287Z,335
2016-12-12T09:59:26.754Z,330
2016-12-12T10:00:36.525Z,340
2016-12-12T10:01:45.680Z,350
2016-12-12T10:02:55.147Z,340
2016-12-12T10:04:04.656Z,330
2016-12-12T10:05:14.448Z,335
2016-12-12T10:06:23.610Z,320
2016-12-12T10:07:33.075Z,285
2016-12-12T10:08:42.888Z,240
2016-12-12T10:09:52.667Z,230
2016-12-12T10:11:02.479Z,215
2016-12-12T10:12:12.029Z,205
2016-12-12T10:13:21.845Z,210
2016-12-12T10:14:31.325Z,225
2016-12-12T10:15:40.805Z,245
2016-12-12T10:16:49.976Z,260
2016-12-12T10:17:59.160Z,255
2016-12-12T10:19:08.708Z,250
2016-12-12T10:20:17.859Z,240
2016-12-12T10:21:27.637Z,245
2016-12-12T10:22:37.412Z,240
2016-12-12T10:23:46.924Z,265
2016-12-12T10:24:56.772Z,275
2016-12-12T10:26:06.613Z,300
2016-12-12T10:27:16.084Z,310
2016-12-12T10:28:25.903Z,275
2016-12-12T10:29:35.363Z,245
2016-12-12T10:30:44.827Z,220
2016-12-12T10:31:54.640Z,225
2016-12-12T10:33:04.454Z,235
2016-12-12T10:34:13.964Z,230
2016-12-12T10:35:23.810Z,230
2016-12-12T10:36:33.669Z,240
2016-12-12T10:37:43.449Z,280
2016-12-12T10:38:52.917Z,335
2016-12-12T10:40:02.748Z,370
2016-12-12T10:41:12.214Z,375
2016-12-12T10:42:21.702Z,370
2016-12-12T10:43:31.194Z,350
2016-12-12T10:44:40.672Z,355
2016-12-12T10:45:50.453Z,375
2016-12-12T10:46:59.936Z,390
2016-12-12T10:48:09.411Z,385
2016-12-12T10:49:18.929Z,395
2016-12-12T10:50:28.707Z,420
2016-12-12T10:51:38.529Z,470
2016-12-12T10:52:48.054Z,535
2016-12-12T10:53:57.964Z,515
2016-12-12T10:55:07.757Z,505
2016-12-12T10:56:17.003Z,420
2016-12-12T10:57:26.502Z,345
2016-12-12T10:58:35.971Z,400
2016-12-12T10:59:45.533Z,400
2016-12-12T11:00:55.055Z,455
2016-12-12T11:02:04.872Z,530
2016-12-12T11:03:14.064Z,530
2016-12-12T11:04:23.953Z,555
2016-12-12T11:05:33.748Z,650
2016-12-12T11:06:43.534Z,725
2016-12-12T11:07:53.349Z,710
2016-12-12T11:09:03.138Z,705
2016-12-12T11:10:12.975Z,710
2016-12-12T11:11:22.782Z,705
2016-12-12T11:12:32.377Z,645
2016-12-12T11:13:42.219Z,615
2016-12-12T11:14:51.993Z,645
2016-12-12T11:16:01.778Z,680
2016-12-12T11:17:11.644Z,560
2016-12-12T11:18:21.125Z,480
2016-12-12T11:19:30.650Z,400
2016-12-12T11:20:40.233Z,415
2016-12-12T11:21:49.100Z,430
2016-12-12T11:22:58.927Z,390
2016-12-12T11:24:08.409Z,330
2016-12-12T11:25:18.000Z,335
2016-12-12T11:26:27.806Z,345
2016-12-12T11:27:37.306Z,340
2016-12-12T11:28:46.462Z,320
2016-12-12T11:29:56.261Z,290
2016-12-12T11:31:06.074Z,285
2016-12-12T11:32:15.676Z,295
2016-12-12T11:33:25.492Z,280
2016-12-12T11:34:35.307Z,300
2016-12-12T11:35:45.104Z,305
2016-12-12T11:36:54.595Z,305
2016-12-12T11:38:04.449Z,295
2016-12-12T11:39:14.251Z,310
2016-12-12T11:40:23.757Z,340
2016-12-12T11:41:33.548Z,385
2016-12-12T11:42:43.023Z,395
2016-12-12T11:43:52.220Z,365
2016-12-12T11:45:01.751Z,345
2016-12-12T11:46:11.223Z,270
2016-12-12T11:47:21.038Z,275
2016-12-12T11:48:30.532Z,265
2016-12-12T11:49:39.724Z,280
2016-12-12T11:50:49.589Z,290
2016-12-12T11:51:59.132Z,305
2016-12-12T11:53:08.951Z,315
2016-12-12T11:54:18.738Z,325
2016-12-12T11:55:28.508Z,300
2016-12-12T11:56:38.304Z,290
2016-12-12T11:57:47.906Z,280
2016-12-12T11:58:57.381Z,285
2016-12-12T12:00:07.217Z,275
2016-12-12T12:01:17.013Z,235
2016-12-12T12:02:26.482Z,230
2016-12-12T12:03:35.961Z,245
2016-12-12T12:04:45.772Z,270
2016-12-12T12:05:55.540Z,280
2016-12-12T12:07:05.061Z,300
2016-12-12T12:08:14.300Z,315
2016-12-12T12:09:23.777Z,325
2016-12-12T12:10:33.611Z,330
2016-12-12T12:11:43.453Z,315
2016-12-12T12:12:53.256Z,335
2016-12-12T12:14:02.743Z,330
2016-12-12T12:15:12.281Z,300
2016-12-12T12:16:21.790Z,290
2016-12-12T12:17:31.705Z,280
2016-12-12T12:18:41.201Z,265
2016-12-12T12:19:51.005Z,250
2016-12-12T12:21:00.908Z,255
2016-12-12T12:22:10.850Z,260
2016-12-12T12:23:20.711Z,265
2016-12-12T12:24:30.485Z,230
2016-12-12T12:25:40.158Z,250
2016-12-12T12:26:49.969Z,260
2016-12-12T12:27:59.780Z,265
2016-12-12T12:29:09.285Z,260
2016-12-12T12:30:19.060Z,250
2016-12-12T12:31:28.885Z,240
2016-12-12T12:32:38.375Z,235
2016-12-12T12:33:48.225Z,240
2016-12-12T12:34:58.000Z,240
2016-12-12T12:36:07.816Z,210
2016-12-12T12:37:17.622Z,175
2016-12-12T12:38:27.374Z,150
2016-12-12T12:39:36.574Z,150
2016-12-12T12:40:45.868Z,135
2016-12-12T12:41:55.658Z,110
2016-12-12T12:43:05.127Z,115
2016-12-12T12:44:14.937Z,105
2016-12-12T12:45:24.730Z,100
2016-12-12T12:46:34.242Z,90
2016-12-12T12:47:43.738Z,85
2016-12-12T12:48:53.258Z,80
2016-12-12T12:50:02.740Z,80
2016-12-12T12:51:12.209Z,85
2016-12-12T12:52:21.706Z,85
2016-12-12T12:53:31.174Z,85
2016-12-12T12:54:40.727Z,80
2016-12-12T12:55:50.526Z,75
2016-12-12T12:57:00.004Z,70
2016-12-12T12:58:09.810Z,70
2016-12-12T12:59:19.392Z,70
2016-12-12T13:00:28.854Z,70
2016-12-12T13:01:38.673Z,70
2016-12-12T13:02:48.170Z,65
2016-12-12T13:03:57.638Z,65
2016-12-12T13:05:07.403Z,75
2016-12-12T13:06:17.252Z,85
2016-12-12T13:07:27.029Z,90
2016-12-12T13:08:36.830Z,90
2016-12-12T13:09:46.336Z,85
2016-12-12T13:10:56.252Z,80
2016-12-12T13:12:05.754Z,80
2016-12-12T13:13:15.215Z,90
2016-12-12T13:14:25.112Z,95
2016-12-12T13:15:34.271Z,95
2016-12-12T13:16:43.755Z,95
2016-12-12T13:17:53.611Z,95
2016-12-12T13:19:03.410Z,95
2016-12-12T13:20:13.261Z,95
2016-12-12T13:21:23.099Z,95
2016-12-12T13:22:32.578Z,90
2016-12-12T13:23:42.365Z,90
2016-12-12T13:24:52.139Z,90
2016-12-12T13:26:01.316Z,90
2016-12-12T13:27:10.814Z,90
2016-12-12T13:28:20.423Z,90
2016-12-12T13:29:30.267Z,90
2016-12-12T13:30:39.441Z,90
2016-12-12T13:31:49.282Z,90
2016-12-12T13:32:59.060Z,90
2016-12-12T13:34:08.846Z,85
2016-12-12T13:35:18.325Z,85
2016-12-12T13:36:28.101Z,85
2016-12-12T13:37:37.571Z,80
2016-12-12T13:38:47.468Z,85
2016-12-12T13:39:56.940Z,85
2016-12-12T13:41:06.540Z,85
2016-12-12T13:42:15.713Z,85
2016-12-12T13:43:25.223Z,85
2016-12-12T13:44:35.017Z,90
2016-12-12T13:45:44.492Z,90
2016-12-12T13:46:54.410Z,85
2016-12-12T13:48:03.945Z,85
2016-12-12T13:49:13.414Z,80
2016-12-12T13:50:23.335Z,85
2016-12-12T13:51:33.143Z,85
2016-12-12T13:52:43.053Z,80
2016-12-12T13:53:52.845Z,75
2016-12-12T13:55:02.327Z,75
2016-12-12T13:56:12.154Z,70
2016-12-12T13:57:21.937Z,65
2016-12-12T13:58:31.426Z,65
2016-12-12T13:59:41.236Z,60
2016-12-12T14:00:50.705Z,55
2016-12-12T14:02:00.173Z,55
2016-12-12T14:03:09.966Z,50
2016-12-12T14:04:19.481Z,45
2016-12-12T14:05:29.049Z,45
2016-12-12T14:06:38.530Z,45
2016-12-12T14:07:48.395Z,45
2016-12-12T14:08:58.196Z,40
2016-12-12T14:10:08.011Z,40
2016-12-12T14:11:17.531Z,35
2016-12-12T14:12:26.719Z,35
2016-12-12T14:13:36.487Z,35
2016-12-12T14:14:46.280Z,35
2016-12-12T14:15:55.765Z,30
2016-12-12T14:17:05.292Z,30
2016-12-12T14:18:14.776Z,30
2016-12-12T14:19:24.607Z,30
2016-12-12T14:20:34.556Z,25
2016-12-12T14:21:44.341Z,25
2016-12-12T14:22:53.843Z,25
2016-12-12T14:24:03.001Z,25
2016-12-12T14:25:12.484Z,25
2016-12-12T14:26:22.266Z,25
2016-12-12T14:27:31.429Z,25
2016-12-12T14:28:41.224Z,20
2016-12-12T14:29:51.000Z,20
2016-12-12T14:31:00.531Z,20
2016-12-12T14:32:10.030Z,20
2016-12-12T14:33:19.231Z,20
2016-12-12T14:34:29.035Z,20
2016-12-12T14:35:38.539Z,15
2016-12-12T14:36:48.366Z,15
2016-12-12T14:37:58.214Z,15
2016-12-12T14:39:08.099Z,15
2016-12-12T14:40:17.916Z,15
2016-12-12T14:41:27.739Z,10
2016-12-12T14:42:37.556Z,10
2016-12-12T14:43:47.023Z,10
2016-12-12T14:44:56.524Z,10
2016-12-12T14:46:06.360Z,10
2016-12-12T14:47:15.830Z,10
2016-12-12T14:48:25.333Z,10
2016-12-12T14:49:35.155Z,10
2016-12-12T14:50:45.060Z,10
2016-12-12T14:51:54.853Z,10
2016-12-12T14:53:04.651Z,5
2016-12-12T14:54:13.799Z,5
2016-12-12T14:55:23.619Z,5
2016-12-12T14:56:33.113Z,5
2016-12-12T14:57:42.612Z,5
2016-12-12T14:58:52.395Z,5
2016-12-12T15:00:02.192Z,5
2016-12-12T15:01:11.698Z,5
2016-12-12T15:02:21.492Z,0
2016-12-12T15:03:31.262Z,0
2016-12-12T15:04:40.750Z,0
2016-12-12T15:05:50.638Z,0
2016-12-12T15:06:59.803Z,0
2016-12-12T15:08:08.686Z,0
2016-12-12T15:09:18.253Z,0
2016-12-12T15:10:27.738Z,0
2016-12-12T15:11:36.924Z,0
2016-12-12T15:12:46.696Z,0
2016-12-12T15:13:56.209Z,0
2016-12-12T15:15:05.725Z,0
2016-12-12T15:16:15.550Z,0
2016-12-12T15:17:25.015Z,0
2016-12-12T15:18:34.799Z,0
2016-12-12T15:19:44.019Z,0
2016-12-12T15:20:53.903Z,0
2016-12-12T15:22:03.718Z,0
2016-12-12T15:23:13.207Z,0
2016-12-12T15:24:22.685Z,0
2016-12-12T15:25:32.162Z,0
2016-12-12T15:26:41.655Z,0
2016-12-12T15:27:51.508Z,0
2016-12-12T15:29:01.296Z,0
2016-12-12T15:30:11.152Z,0
2016-12-12T15:31:20.615Z,0
2016-12-12T15:32:30.396Z,0
2016-12-12T15:33:39.869Z,0
2016-12-12T15:34:49.359Z,0
2016-12-12T15:35:58.960Z,0
2016-12-12T15:37:08.435Z,0
2016-12-12T15:38:18.230Z,0
2016-12-12T15:39:27.416Z,0
2016-12-12T15:40:36.893Z,0
2016-12-12T15:41:46.677Z,0
2016-12-12T15:42:55.882Z,0
2016-12-12T15:44:05.079Z,0
2016-12-12T15:45:14.915Z,0
2016-12-12T15:46:24.401Z,0
2016-12-12T15:47:33.635Z,0
2016-12-12T15:48:43.126Z,0
2016-12-12T15:49:52.019Z,0
2016-12-12T15:51:02.024Z,0
2016-12-12T15:52:11.543Z,0
2016-12-12T15:53:21.342Z,0
2016-12-12T15:54:30.855Z,0
2016-12-12T15:55:40.647Z,0
2016-12-12T15:56:50.144Z,0
2016-12-12T15:57:59.716Z,0
2016-12-12T15:59:09.488Z,0
2016-12-12T16:00:19.289Z,0
2016-12-12T16:01:28.762Z,0
2016-12-12T16:02:38.282Z,0
2016-12-12T16:03:47.741Z,0
2016-12-12T16:04:57.546Z,0
2016-12-12T16:06:07.081Z,0
2016-12-12T16:07:16.860Z,0
2016-12-12T16:08:26.353Z,0
2016-12-12T16:09:36.181Z,0
2016-12-12T16:10:45.983Z,0
2016-12-12T16:11:55.793Z,0
2016-12-12T16:13:05.305Z,0
2016-12-12T16:14:15.180Z,0
2016-12-12T16:15:24.966Z,0
2016-12-12T16:16:34.122Z,0
2016-12-12T16:17:43.609Z,0
2016-12-12T16:18:52.780Z,0
2016-12-12T16:20:02.340Z,0
2016-12-12T16:21:11.533Z,0
2016-12-12T16:22:20.801Z,0
2016-12-12T16:23:30.591Z,0
2016-12-12T16:24:40.555Z,0
2016-12-12T16:25:50.045Z,0
2016-12-12T16:26:59.563Z,0
2016-12-12T16:28:09.574Z,0
2016-12-12T16:29:19.577Z,0
2016-12-12T16:30:29.386Z,0
2016-12-12T16:31:38.611Z,0
2016-12-12T16:32:48.076Z,0
2016-12-12T16:33:57.692Z,0
2016-12-12T16:35:06.904Z,0
2016-12-12T16:36:16.699Z,0
2016-12-12T16:37:26.528Z,0
2016-12-12T16:38:36.423Z,0
2016-12-12T16:39:46.244Z,0
2016-12-12T16:40:56.034Z,0
2016-12-12T16:42:05.529Z,0
2016-12-12T16:43:15.098Z,0
2016-12-12T16:44:24.592Z,0